logo
App data

Frog Climbers

Climb mountains. Beat your friends. Be a douchefrog!
Store | Hub | SteamDB | Site
Developer: TeamCrew Publisher: Dear Villagers
Genre: Indie
Languages: English
Tags: Indie (35), Local Multiplayer (19), Funny (15), Parkour (13), 4 Player Local (8)
Category: Single-player, Multi-player, PvP, Shared/Split Screen PvP, Shared/Split Screen, Full controller support, Steam Leaderboards, Remote Play on Phone, Remote Play on Tablet, Remote Play on TV, Remote Play Together
Release date: Oct 6, 2016
Price: $6.99
Old userscore: 82% Owners: 20,000 .. 50,000
Followers: 671
Peak concurrent players yesterday: 1
Playtime total: 03:10 (average) 03:10 (median)

Steam Spy is still in beta, so expect major bugs.

Owners data:

Access restricted.

This feature is only available to users with special access rights. Sorry.

If you want to proceed, you need to register or log in first and then back Steam Spy on Patreon. Look for Indie or Pro pledge.

Don't forget to use the same email as on Steam Spy!

If you've recently backed Steam Spy on Patreon, please note, that it might take around 15 minutes for your access rights to sync. In most cases you'll need to re-login on Steam Spy too.

Audience in 2 weeks:

Access restricted.

This feature is only available to users with special access rights. Sorry.

If you want to proceed, you need to register or log in first and then back Steam Spy on Patreon. Look for Indie or Pro pledge.

Don't forget to use the same email as on Steam Spy!

If you've recently backed Steam Spy on Patreon, please note, that it might take around 15 minutes for your access rights to sync. In most cases you'll need to re-login on Steam Spy too.

Peak daily concurrent players:

CCU data courtesy of SteamDB. Used with permission.

Hourly concurrent players:

Daily Twitch stats:

Hourly Twitch stats:

Followers over time

Access restricted.

This feature is only available to users with special access rights. Sorry.

If you want to proceed, you need to register or log in first and then back Steam Spy on Patreon. Look for Indie or Pro pledge.

Don't forget to use the same email as on Steam Spy!

If you've recently backed Steam Spy on Patreon, please note, that it might take around 15 minutes for your access rights to sync. In most cases you'll need to re-login on Steam Spy too.

Views for top 50 videos on YouTube for this game:

Games similar to this one:

# Game Release date
Price
Score rank
(Userscore / Metascore)
Owners
Players
Playtime (Median)
1 BAD END Nov 25, 2015 $4.99N/A (N/A)20,000 .. 50,0000%00:00 (00:00)
2 Forgotten, Not Lost - A Kinetic Novel Apr 2, 2016 $1.99N/A (N/A)20,000 .. 50,0000%00:00 (00:00)
3 Burst Mar 14, 2016 N/AN/A (N/A)20,000 .. 50,0000%00:00 (00:00)
4 Hustle Cat Mar 16, 2016 $19.99N/A (N/A)50,000 .. 100,0000%00:00 (00:00)
5 Caravanserail Mar 10, 2016 $2.99N/A (N/A)0 .. 20,0000%00:00 (00:00)
6 RePete Nov 1, 2015 $1.99N/A (N/A)0 .. 20,0000%00:00 (00:00)
7 XCavalypse Jun 6, 2016 $5.99N/A (N/A)0 .. 20,0000%00:00 (00:00)
8 Night Blights Apr 15, 2016 $6.99N/A (N/A)0 .. 20,0000%00:00 (00:00)
9 Sophie's Curse Mar 16, 2016 $4.99N/A (N/A)50,000 .. 100,0000%00:00 (00:00)
10 Broken Dreams Feb 19, 2016 $1.99N/A (N/A)500,000 .. 1,000,0000%00:00 (00:00)
11 Air Missions: HIND Mar 21, 2016 $16.99N/A (N/A)20,000 .. 50,0000%00:00 (00:00)
12 Rescue Team 5 Sep 30, 2015 $3.99N/A (N/A)0 .. 20,0000%00:00 (00:00)
13 Love in the Glen Jun 8, 2016 $5.99N/A (N/A)20,000 .. 50,0000%00:00 (00:00)
14 Swapperoo Dec 18, 2015 $4.99N/A (N/A)0 .. 20,0000%00:00 (00:00)
15 Herding Dog Dec 25, 2015 $0.99N/A (N/A)0 .. 20,0000%00:00 (00:00)
16 The Last NightMary - A Lenda do Cabeça de Cuia Nov 2, 2015 $3.99N/A (N/A)50,000 .. 100,0000%00:00 (00:00)
17 Lift It Jan 20, 2017 $4.99N/A (N/A)50,000 .. 100,0000%00:00 (00:00)
18 Anode Oct 5, 2015 $3.99N/A (N/A)20,000 .. 50,0000%00:00 (00:00)
19 Without Within 2 Nov 9, 2015 $4.99N/A (N/A)0 .. 20,0000%00:00 (00:00)
20 12 Labours of Hercules IV: Mother Nature (Platinum Edition) Dec 25, 2015 $2.99N/A (N/A)20,000 .. 50,0000%00:00 (00:00)
21 Tennis in the Face Nov 18, 2015 $4.99N/A (N/A)0 .. 20,0000%00:00 (00:00)
22 The Deletion Jul 30, 2015 $1.99N/A (N/A)20,000 .. 50,0000%00:00 (00:00)
23 Collisions Jul 28, 2015 $3.99N/A (N/A)50,000 .. 100,0000%00:00 (00:00)
24 Won't You Be My Laser? Sep 2, 2016 $0.99N/A (N/A)20,000 .. 50,0000%00:00 (00:00)
25 Dungeon Painter Studio Feb 26, 2017 $14.99N/A (N/A)50,000 .. 100,0006.67%01:38 (00:32)
26 Ninja Stealth 2 Jan 30, 2017 $0.49N/A (N/A)50,000 .. 100,0000%00:00 (00:00)
27 Winexy Jan 13, 2017 $0.49N/A (N/A)50,000 .. 100,00025%00:44 (00:14)
28 iREC Jan 16, 2017 $2.99N/A (N/A)100,000 .. 200,0000%00:00 (00:00)
29 Neon Prism Nov 18, 2016 $10.99N/A (N/A)200,000 .. 500,0000%00:00 (00:00)
30 GO AWAY, THERE'S KUMIS OVER THERE! Oct 28, 2016 $0.99N/A (N/A)50,000 .. 100,0000%00:00 (00:00)
31 Kombine Oct 14, 2016 $0.99N/A (N/A)20,000 .. 50,0000%00:00 (00:00)
32 Archimedes Oct 6, 2016 $1.99N/A (N/A)20,000 .. 50,0000%00:00 (00:00)
33 Turbo Pug 3D Sep 20, 2016 $0.99N/A (N/A)200,000 .. 500,0000%00:00 (00:00)
34 Football Blitz Jan 4, 2017 N/AN/A (N/A)0 .. 20,0000%00:00 (00:00)
35 Robot vs Birds Zombies Jun 1, 2013 $0.99N/A (N/A)500,000 .. 1,000,0000%00:00 (00:00)
36 Optika Aug 26, 2016 $4.99N/A (N/A)0 .. 20,0000%00:00 (00:00)
37 Clock Simulator Jul 20, 2016 N/AN/A (N/A)0 .. 20,0000%00:00 (00:00)
38 ConflictCraft Dec 8, 2016 $0.49N/A (N/A)100,000 .. 200,0000%00:00 (00:00)
39 Totally Unbalanced Jul 29, 2016 FreeN/A (N/A)50,000 .. 100,0000%00:00 (00:00)
40 Magma Tsunami Jun 1, 2016 $0.99N/A (N/A)200,000 .. 500,0000%00:00 (00:00)
41 hackmud Sep 22, 2016 $19.99N/A (N/A)20,000 .. 50,0000%00:00 (00:00)
42 King's Guard TD Jun 8, 2016 $2.99N/A (N/A)200,000 .. 500,0000%00:00 (00:00)
43 Hyposphere May 5, 2016 $2.99N/A (N/A)200,000 .. 500,0000%00:00 (00:00)
44 Reptilian Rebellion Aug 8, 2016 $2.99N/A (N/A)50,000 .. 100,0000%00:00 (00:00)
45 One Last Chance Apr 7, 2016 $3.99N/A (N/A)20,000 .. 50,0000%00:00 (00:00)
46 On Rusty Trails Jun 13, 2016 $12.99N/A (N/A/77%)0 .. 20,0000%00:00 (00:00)
47 Sinister City Oct 18, 2014 $0.99N/A (N/A)100,000 .. 200,0000%00:00 (00:00)
48 SinaRun Oct 26, 2015 $2.99N/A (N/A)20,000 .. 50,0000%00:00 (00:00)
49 Quantum Rush Champions Dec 4, 2014 $9.99N/A (N/A)20,000 .. 50,0000%00:00 (00:00)
50 A Good Snowman Is Hard To Build Feb 25, 2015 $9.99N/A (N/A)50,000 .. 100,0000%00:00 (00:00)
51 Bloop Reloaded Feb 6, 2015 FreeN/A (N/A)100,000 .. 200,0000%00:00 (00:00)
52 Wildlife Park 2 - Dino World Mar 30, 2012 $3.99N/A (N/A)20,000 .. 50,0000%00:00 (00:00)
53 Cute Things Dying Violently Sep 2, 2015 $2.99N/A (N/A)0 .. 20,0000%00:00 (00:00)
54 Cyto Jul 10, 2014 $3.99N/A (N/A)20,000 .. 50,0000%00:00 (00:00)
55 European Ship Simulator Nov 4, 2016 $19.99N/A (N/A)100,000 .. 200,0000%00:00 (00:00)
56 Rage Runner May 16, 2014 $4.99N/A (N/A)0 .. 20,0000%00:00 (00:00)
57 The Jackbox Party Pack Nov 26, 2014 $24.99N/A (N/A)200,000 .. 500,0000%00:00 (00:00)
58 Tribloos 2 Jan 12, 2013 $4.99N/A (N/A)100,000 .. 200,0000%00:00 (00:00)
59 Paranormal State: Poison Spring Nov 26, 2013 $9.99N/A (N/A)50,000 .. 100,0000%00:00 (00:00)
60 Farm for your Life Jun 5, 2013 $9.99N/A (N/A)50,000 .. 100,0000%00:00 (00:00)
61 Girls Like Robots Feb 14, 2014 $6.99N/A (N/A)100,000 .. 200,0000%00:00 (00:00)
62 Dead Man's Draw Feb 6, 2014 $6.99N/A (N/A)50,000 .. 100,0000%00:00 (00:00)
63 Particulars Nov 19, 2014 FreeN/A (N/A/74%)0 .. 20,0000%00:00 (00:00)
64 Oozi: Earth Adventure Dec 5, 2013 $4.99N/A (N/A/66%)20,000 .. 50,0000%00:00 (00:00)
65 Highborn Feb 19, 2013 $1.99N/A (N/A)0 .. 20,0000%00:00 (00:00)
66 Luxor Evolved Mar 1, 2012 $9.99N/A (N/A)50,000 .. 100,0000%00:00 (00:00)
67 Governor of Poker 2 - Premium Edition Oct 11, 2010 $7.99N/A (N/A)20,000 .. 50,0000%00:00 (00:00)
68 Egg Returns Home May 5, 2015 N/AN/A (N/A)50,000 .. 100,0000%00:00 (00:00)
69 In Between Aug 21, 2015 $1.79N/A (N/A/68%)50,000 .. 100,0000%00:00 (00:00)
70 Alpha Runner Sep 2, 2015 $0.99N/A (N/A)100,000 .. 200,0000%00:00 (00:00)
71 Wanda - A Beautiful Apocalypse Jun 3, 2016 $1.99N/A (N/A)100,000 .. 200,0000%00:00 (00:00)
72 Job the Leprechaun Jul 31, 2015 $2.99N/A (N/A)20,000 .. 50,0000%00:00 (00:00)
73 Star Chronicles: Delta Quadrant Jul 7, 2015 $0.99N/A (N/A)200,000 .. 500,0000%00:00 (00:00)
74 Koala Kids Jun 22, 2015 $1.99N/A (N/A)100,000 .. 200,0000%00:00 (00:00)
75 Fate Tectonics Sep 9, 2015 $4.99N/A (N/A)20,000 .. 50,0000%00:00 (00:00)
76 Space Drifters 2D Mar 28, 2016 $0.99N/A (N/A)20,000 .. 50,0000%00:00 (00:00)
77 Way of Gold and Steel Aug 17, 2015 $8.99N/A (N/A)20,000 .. 50,0000%00:00 (00:00)
78 Power of Love Jul 21, 2015 $0.99N/A (N/A)20,000 .. 50,0000%00:00 (00:00)
79 Thrillville: Off the Rails Oct 9, 2007 $9.99N/A (N/A/70%)20,000 .. 50,0000%00:00 (00:00)
80 Cursed Sight Aug 3, 2015 $4.99N/A (N/A)20,000 .. 50,0000%00:00 (00:00)
81 The Reject Demon: Toko Chapter 0 — Prelude May 9, 2015 $4.99N/A (N/A)20,000 .. 50,0000%00:00 (00:00)
82 Alter World May 29, 2015 $1.99N/A (N/A)200,000 .. 500,0000%00:00 (00:00)
83 Pester Jan 25, 2013 $0.99N/A (N/A)100,000 .. 200,0000%00:00 (00:00)
84 Streets of Chaos Jan 23, 2015 N/AN/A (N/A)100,000 .. 200,0000%00:00 (00:00)
85 Stay Alight Mar 2, 2015 $3.99N/A (N/A)50,000 .. 100,0000%00:00 (00:00)
86 Pixel Puzzles 2: Birds Feb 20, 2015 $4.99N/A (N/A)100,000 .. 200,0000%00:00 (00:00)
87 12 Labours of Hercules Mar 23, 2015 $2.99N/A (N/A)100,000 .. 200,0000%00:00 (00:00)
88 Marble Duel: Sphere-Matching Tactical Fantasy Nov 12, 2015 $14.99N/A (N/A)50,000 .. 100,0000%00:00 (00:00)
89 Steam and Metal Feb 9, 2015 $4.99N/A (N/A)0 .. 20,0000%00:00 (00:00)

Tags over time:

Access restricted.

This feature is only available to users with special access rights. Sorry.

If you want to proceed, you need to register or log in first and then back Steam Spy on Patreon. Look for Indie or Pro pledge.

Don't forget to use the same email as on Steam Spy!

If you've recently backed Steam Spy on Patreon, please note, that it might take around 15 minutes for your access rights to sync. In most cases you'll need to re-login on Steam Spy too.

Owners of this game also own:

Access restricted.

This feature is only available to users with special access rights. Sorry.

If you want to proceed, you need to register or log in first and then back Steam Spy on Patreon. Look for Indie or Pro pledge.

Don't forget to use the same email as on Steam Spy!

If you've recently backed Steam Spy on Patreon, please note, that it might take around 15 minutes for your access rights to sync. In most cases you'll need to re-login on Steam Spy too.

Playtime distribution:

Access restricted.

This feature is only available to users with special access rights. Sorry.

If you want to proceed, you need to register or log in first and then back Steam Spy on Patreon. Look for Indie or Pro pledge.

Don't forget to use the same email as on Steam Spy!

If you've recently backed Steam Spy on Patreon, please note, that it might take around 15 minutes for your access rights to sync. In most cases you'll need to re-login on Steam Spy too.

Playtime (2 weeks):

Access restricted.

This feature is only available to users with special access rights. Sorry.

If you want to proceed, you need to register or log in first and then back Steam Spy on Patreon. Look for Indie or Pro pledge.

Don't forget to use the same email as on Steam Spy!

If you've recently backed Steam Spy on Patreon, please note, that it might take around 15 minutes for your access rights to sync. In most cases you'll need to re-login on Steam Spy too.

User reviews:

Login required.

Please register or log in to see this information.